Time;durP1;ratioP1;P1;durP2;ratioP2;P2;SDS_P1;SDS_P2;PMS_P1;PMS_P2;Temp;Humidity;BMP_temperature;BMP_pressure;BME280_temperature;BME280_humidity;BME280_pressure;Samples;Min_cycle;Max_cycle;Signal;HPM_P1;HPM_P2
2023/01/03 00:00:37;;;;;;;12.13;7.90;;;;;;;;;;5067123;28;20028;-77
2023/01/03 00:03:03;;;;;;;11.02;7.65;;;;;;;;;;5066512;28;20025;-77
2023/01/03 00:05:29;;;;;;;11.35;7.22;;;;;;;;;;5067680;28;20517;-77
2023/01/03 00:07:54;;;;;;;10.93;7.55;;;;;;;;;;5055117;28;20016;-77
2023/01/03 00:10:20;;;;;;;11.20;7.20;;;;;;;;;;5060912;28;20036;-77
2023/01/03 00:12:45;;;;;;;10.57;7.63;;;;;;;;;;5062998;28;20388;-77
2023/01/03 00:15:14;;;;;;;11.25;6.90;;;;;;;;;;5064636;28;20028;-77
2023/01/03 00:17:40;;;;;;;12.98;7.28;;;;;;;;;;5060812;28;20107;-77
2023/01/03 00:20:06;;;;;;;12.80;7.07;;;;;;;;;;5058314;28;20455;-77
2023/01/03 00:22:32;;;;;;;11.02;6.75;;;;;;;;;;5065542;28;20028;-77
2023/01/03 00:24:57;;;;;;;9.57;6.50;;;;;;;;;;5060259;28;20033;-77
2023/01/03 00:27:23;;;;;;;9.57;6.50;;;;;;;;;;5063892;28;20380;-77
2023/01/03 00:29:48;;;;;;;9.63;6.35;;;;;;;;;;5061439;28;20045;-77
2023/01/03 00:32:13;;;;;;;10.77;5.88;;;;;;;;;;5066119;28;20524;-77
2023/01/03 00:34:39;;;;;;;9.68;6.10;;;;;;;;;;5063284;28;20020;-77
2023/01/03 00:37:04;;;;;;;8.90;6.00;;;;;;;;;;5064267;28;20032;-77
2023/01/03 00:39:30;;;;;;;12.00;6.28;;;;;;;;;;5053860;28;20531;-77
2023/01/03 00:41:55;;;;;;;10.45;6.57;;;;;;;;;;5068537;28;20028;-77
2023/01/03 00:44:21;;;;;;;8.80;6.15;;;;;;;;;;5062705;28;20545;-77
2023/01/03 00:46:46;;;;;;;11.25;6.13;;;;;;;;;;5066994;28;20031;-77
2023/01/03 00:49:12;;;;;;;9.05;6.45;;;;;;;;;;5067660;28;20357;-77
2023/01/03 00:51:40;;;;;;;9.25;6.00;;;;;;;;;;5066520;28;20126;-77
2023/01/03 00:54:06;;;;;;;9.20;5.93;;;;;;;;;;5063666;28;20020;-77
2023/01/03 00:56:34;;;;;;;8.93;5.28;;;;;;;;;;5063423;28;20107;-77
2023/01/03 00:59:00;;;;;;;9.27;6.80;;;;;;;;;;5063905;28;20115;-77
2023/01/03 01:01:32;;;;;;;9.65;6.22;;;;;;;;;;5061837;28;20108;-77
2023/01/03 01:04:02;;;;;;;10.10;6.22;;;;;;;;;;5059581;28;20024;-77
2023/01/03 01:06:30;;;;;;;10.10;6.80;;;;;;;;;;5061305;28;20043;-77
2023/01/03 01:08:57;;;;;;;9.00;5.78;;;;;;;;;;5061360;28;20028;-77
2023/01/03 01:11:24;;;;;;;10.10;5.95;;;;;;;;;;5068658;28;21937;-77
2023/01/03 01:13:50;;;;;;;10.25;6.13;;;;;;;;;;5069052;28;20023;-77
2023/01/03 01:16:19;;;;;;;8.82;6.25;;;;;;;;;;5064017;28;20031;-77
2023/01/03 01:18:46;;;;;;;8.95;6.45;;;;;;;;;;5063858;28;20596;-77
2023/01/03 01:21:17;;;;;;;10.45;6.82;;;;;;;;;;5064786;28;20036;-77
2023/01/03 01:23:44;;;;;;;10.05;6.60;;;;;;;;;;5059880;28;20032;-77
2023/01/03 01:26:12;;;;;;;9.85;6.82;;;;;;;;;;5059423;28;20073;-77
2023/01/03 01:28:37;;;;;;;9.68;6.70;;;;;;;;;;5061651;28;20115;-77
2023/01/03 01:31:04;;;;;;;9.43;6.65;;;;;;;;;;5067344;28;20162;-77
2023/01/03 01:33:32;;;;;;;10.63;6.68;;;;;;;;;;5073414;28;20534;-77
2023/01/03 01:35:58;;;;;;;10.38;6.78;;;;;;;;;;5069867;28;20032;-77
2023/01/03 01:38:23;;;;;;;10.95;6.60;;;;;;;;;;5065036;28;20035;-77
2023/01/03 01:40:49;;;;;;;10.05;6.90;;;;;;;;;;5063677;28;20028;-77
2023/01/03 01:46:14;;;;;;;10.97;7.17;;;;;;;;;;5068243;28;20042;-77
2023/01/03 01:48:40;;;;;;;10.52;7.60;;;;;;;;;;5067035;28;20085;-77
2023/01/03 01:51:08;;;;;;;12.50;7.35;;;;;;;;;;5062529;28;20016;-77
2023/01/03 01:53:35;;;;;;;12.65;7.43;;;;;;;;;;5069628;28;20384;-77
2023/01/03 01:56:13;;;;;;;10.27;7.53;;;;;;;;;;5065652;28;20499;-77
2023/01/03 01:58:41;;;;;;;11.13;7.40;;;;;;;;;;5070665;28;20112;-77
2023/01/03 02:01:11;;;;;;;10.20;6.97;;;;;;;;;;5068660;28;20059;-77
2023/01/03 02:03:37;;;;;;;9.85;7.18;;;;;;;;;;5065612;28;20410;-77
2023/01/03 02:06:06;;;;;;;10.45;7.18;;;;;;;;;;5066298;28;20033;-77
2023/01/03 02:08:32;;;;;;;10.48;7.30;;;;;;;;;;5079564;28;20016;-77
2023/01/03 02:11:16;;;;;;;13.70;7.70;;;;;;;;;;5067633;28;20032;-77
2023/01/03 02:14:06;;;;;;;11.85;8.43;;;;;;;;;;5067424;28;20492;-77
2023/01/03 02:16:50;;;;;;;11.55;7.95;;;;;;;;;;5065259;28;20115;-77
2023/01/03 02:19:44;;;;;;;12.18;8.95;;;;;;;;;;5068701;28;20129;-77
2023/01/03 02:22:23;;;;;;;12.23;8.65;;;;;;;;;;5065350;28;20047;-77
2023/01/03 02:25:32;;;;;;;12.20;8.40;;;;;;;;;;5068734;28;20028;-77
2023/01/03 02:28:12;;;;;;;12.98;8.80;;;;;;;;;;5057459;28;20032;-77
2023/01/03 02:30:41;;;;;;;12.68;8.48;;;;;;;;;;5060164;28;20049;-77
2023/01/03 02:33:12;;;;;;;13.50;8.98;;;;;;;;;;5063723;28;20420;-77
2023/01/03 02:35:43;;;;;;;11.88;7.88;;;;;;;;;;5061372;28;20028;-77
2023/01/03 02:38:34;;;;;;;12.63;8.15;;;;;;;;;;5076608;28;20028;-76
2023/01/03 02:41:02;;;;;;;11.95;7.85;;;;;;;;;;5065193;28;21458;-77
2023/01/03 02:43:47;;;;;;;11.88;8.52;;;;;;;;;;5065916;28;20037;-77
2023/01/03 02:46:54;;;;;;;12.30;8.32;;;;;;;;;;5058963;28;20373;-77
2023/01/03 02:49:33;;;;;;;11.48;8.27;;;;;;;;;;5067423;28;20032;-77
2023/01/03 02:52:07;;;;;;;12.07;8.05;;;;;;;;;;5062152;28;20032;-77
2023/01/03 02:54:54;;;;;;;10.68;7.10;;;;;;;;;;5069020;28;20040;-77
2023/01/03 02:57:24;;;;;;;11.93;7.75;;;;;;;;;;5059923;28;20028;-77
2023/01/03 03:00:00;;;;;;;10.95;7.57;;;;;;;;;;5067219;28;20033;-77
2023/01/03 03:02:31;;;;;;;9.90;7.10;;;;;;;;;;5063499;28;20074;-77
2023/01/03 03:04:57;;;;;;;11.00;7.90;;;;;;;;;;5064813;28;20020;-77
2023/01/03 03:07:27;;;;;;;11.13;7.78;;;;;;;;;;5061440;28;20031;-77
2023/01/03 03:15:35;;;;;;;11.35;7.50;;;;;;;;;;5062550;28;20035;-77
2023/01/03 03:18:07;;;;;;;10.25;7.20;;;;;;;;;;5063112;28;20040;-77
2023/01/03 03:26:13;;;;;;;12.30;7.53;;;;;;;;;;5066685;28;20393;-76
2023/01/03 03:28:43;;;;;;;11.02;6.72;;;;;;;;;;5062343;28;20511;-77
2023/01/03 03:31:32;;;;;;;12.18;7.18;;;;;;;;;;5061542;28;20044;-77
2023/01/03 03:34:17;;;;;;;13.18;7.53;;;;;;;;;;5056601;28;20025;-77
2023/01/03 03:37:09;;;;;;;9.82;6.50;;;;;;;;;;5059006;28;20481;-77
2023/01/03 03:45:36;;;;;;;9.70;7.20;;;;;;;;;;5056591;28;20455;-77
2023/01/03 03:48:08;;;;;;;9.02;6.78;;;;;;;;;;5062842;28;20385;-77
2023/01/03 03:50:39;;;;;;;10.75;6.88;;;;;;;;;;5058317;28;20042;-77
2023/01/03 03:53:08;;;;;;;8.40;6.65;;;;;;;;;;5061418;28;20028;-77
2023/01/03 03:55:39;;;;;;;11.45;6.95;;;;;;;;;;5062936;28;20373;-77
2023/01/03 03:58:11;;;;;;;9.05;6.47;;;;;;;;;;5056437;28;20032;-77
2023/01/03 04:00:39;;;;;;;9.43;6.30;;;;;;;;;;5063007;28;20111;-77
2023/01/03 04:03:06;;;;;;;10.60;6.10;;;;;;;;;;5058402;28;20028;-77
2023/01/03 04:05:38;;;;;;;10.60;6.22;;;;;;;;;;5064093;28;20075;-77
2023/01/03 04:08:03;;;;;;;9.35;5.95;;;;;;;;;;5065345;28;20029;-77
2023/01/03 04:10:29;;;;;;;10.35;6.53;;;;;;;;;;5067980;28;20031;-77
2023/01/03 04:12:54;;;;;;;8.68;6.20;;;;;;;;;;5064422;28;20020;-77
2023/01/03 04:15:20;;;;;;;8.10;5.45;;;;;;;;;;5058442;28;20718;-77
2023/01/03 04:17:45;;;;;;;11.45;6.45;;;;;;;;;;5065502;28;20028;-77
2023/01/03 04:20:11;;;;;;;11.32;6.80;;;;;;;;;;5064501;28;20031;-77
2023/01/03 04:22:37;;;;;;;9.10;6.15;;;;;;;;;;5065177;28;20029;-77
2023/01/03 04:25:03;;;;;;;8.90;5.75;;;;;;;;;;5060126;28;20032;-77
2023/01/03 04:27:29;;;;;;;8.70;5.60;;;;;;;;;;5060969;28;20032;-77
2023/01/03 04:29:54;;;;;;;10.85;5.88;;;;;;;;;;5063011;28;20515;-77
2023/01/03 04:32:20;;;;;;;8.25;5.70;;;;;;;;;;5064968;28;20438;-77
2023/01/03 04:34:45;;;;;;;11.23;5.68;;;;;;;;;;5067221;28;20024;-77
2023/01/03 04:37:10;;;;;;;9.48;5.07;;;;;;;;;;5066293;28;20433;-77
2023/01/03 04:39:36;;;;;;;9.00;5.40;;;;;;;;;;5064148;28;20032;-77
2023/01/03 04:44:00;;;;;;;9.65;5.88;;;;;;;;;;5069766;28;20095;-77
2023/01/03 04:44:46;;;;;;;9.85;5.55;;;;;;;;;;5061493;28;20103;-77
2023/01/03 04:47:12;;;;;;;8.85;5.68;;;;;;;;;;5061681;28;20559;-77
2023/01/03 04:49:37;;;;;;;10.40;5.68;;;;;;;;;;5064075;28;20504;-77
2023/01/03 04:52:03;;;;;;;9.80;5.85;;;;;;;;;;5059836;28;20028;-77
2023/01/03 04:54:28;;;;;;;9.57;5.57;;;;;;;;;;5059091;28;20032;-76
2023/01/03 04:56:53;;;;;;;8.77;5.32;;;;;;;;;;5060201;28;20473;-77
2023/01/03 04:59:19;;;;;;;9.88;5.63;;;;;;;;;;5061420;28;20016;-77
2023/01/03 05:01:50;;;;;;;9.68;5.60;;;;;;;;;;5081502;28;20032;-77
2023/01/03 05:04:16;;;;;;;10.15;5.43;;;;;;;;;;5062094;28;20024;-77
2023/01/03 05:06:41;;;;;;;8.23;5.55;;;;;;;;;;5065188;28;20388;-77
2023/01/03 05:09:07;;;;;;;10.05;6.18;;;;;;;;;;5057386;28;20060;-77
2023/01/03 05:11:32;;;;;;;11.18;5.53;;;;;;;;;;5058195;28;20033;-77
2023/01/03 05:13:57;;;;;;;7.70;4.88;;;;;;;;;;5061894;28;20500;-77
2023/01/03 05:16:23;;;;;;;9.27;5.50;;;;;;;;;;5064172;28;20043;-77
2023/01/03 05:18:50;;;;;;;7.95;5.38;;;;;;;;;;5065199;28;20033;-77
2023/01/03 05:26:47;;;;;;;7.97;5.00;;;;;;;;;;5058156;28;20072;-77
2023/01/03 05:29:16;;;;;;;8.95;5.65;;;;;;;;;;5063671;28;20056;-77
2023/01/03 05:31:41;;;;;;;10.82;5.22;;;;;;;;;;5061596;28;20041;-77
2023/01/03 05:34:07;;;;;;;12.10;5.72;;;;;;;;;;5063090;28;20134;-77
2023/01/03 05:36:32;;;;;;;8.73;5.90;;;;;;;;;;5063501;28;20044;-77
2023/01/03 05:38:57;;;;;;;11.00;5.47;;;;;;;;;;5061838;28;20034;-77
2023/01/03 05:44:07;;;;;;;10.68;5.32;;;;;;;;;;5062810;28;20420;-77
2023/01/03 05:46:32;;;;;;;9.43;5.30;;;;;;;;;;5060689;28;20024;-77
2023/01/03 05:48:58;;;;;;;8.70;5.20;;;;;;;;;;5066244;28;20086;-77
2023/01/03 05:51:23;;;;;;;9.38;5.50;;;;;;;;;;5057736;28;20025;-77
2023/01/03 05:53:48;;;;;;;9.18;5.40;;;;;;;;;;5061770;28;20037;-77
2023/01/03 05:56:15;;;;;;;8.23;5.50;;;;;;;;;;5058146;28;20025;-77
2023/01/03 05:58:42;;;;;;;10.82;5.57;;;;;;;;;;5060732;28;20082;-77
2023/01/03 06:01:12;;;;;;;11.25;6.00;;;;;;;;;;5063374;28;20033;-77
2023/01/03 06:03:38;;;;;;;9.88;5.32;;;;;;;;;;5057228;28;20039;-77
2023/01/03 06:06:05;;;;;;;8.98;5.35;;;;;;;;;;5062243;28;20025;-77
2023/01/03 06:08:31;;;;;;;9.02;5.60;;;;;;;;;;5056517;28;20040;-77
2023/01/03 06:10:56;;;;;;;10.60;5.18;;;;;;;;;;5060830;28;20029;-77
2023/01/03 06:13:22;;;;;;;8.27;5.70;;;;;;;;;;5056553;28;20028;-77
2023/01/03 06:18:43;;;;;;;9.23;5.57;;;;;;;;;;5062417;28;20040;-77
2023/01/03 06:21:08;;;;;;;10.02;6.03;;;;;;;;;;5064566;28;20377;-77
2023/01/03 06:23:33;;;;;;;9.25;5.38;;;;;;;;;;5059422;28;20032;-77
2023/01/03 06:26:02;;;;;;;9.10;5.72;;;;;;;;;;5065349;28;20033;-77
2023/01/03 06:28:27;;;;;;;9.43;5.88;;;;;;;;;;5052746;28;20052;-77
2023/01/03 06:30:52;;;;;;;11.25;5.43;;;;;;;;;;5057959;28;20040;-77
2023/01/03 06:33:18;;;;;;;8.68;5.07;;;;;;;;;;5058121;28;21244;-77
2023/01/03 06:35:43;;;;;;;10.30;5.75;;;;;;;;;;5058815;28;20443;-77
2023/01/03 06:38:10;;;;;;;8.85;4.97;;;;;;;;;;5065084;28;20101;-77
2023/01/03 06:40:35;;;;;;;9.32;5.55;;;;;;;;;;5062079;28;20439;-77
2023/01/03 06:43:01;;;;;;;8.60;5.10;;;;;;;;;;5055964;28;20043;-77
2023/01/03 06:53:41;;;;;;;9.98;4.90;;;;;;;;;;5064263;28;20504;-77
2023/01/03 06:56:08;;;;;;;8.45;5.07;;;;;;;;;;5065564;28;20058;-77
2023/01/03 06:58:34;;;;;;;10.75;5.30;;;;;;;;;;5059148;28;20042;-77
2023/01/03 07:01:02;;;;;;;8.75;4.63;;;;;;;;;;5059796;28;20025;-76
2023/01/03 07:03:28;;;;;;;10.55;5.05;;;;;;;;;;5066250;28;20476;-77
2023/01/03 07:05:54;;;;;;;9.68;4.85;;;;;;;;;;5061906;28;20036;-77
2023/01/03 07:08:19;;;;;;;11.75;5.25;;;;;;;;;;5063122;28;20032;-77
2023/01/03 07:10:45;;;;;;;8.48;4.97;;;;;;;;;;5061293;28;20471;-77
2023/01/03 07:15:56;;;;;;;7.60;4.60;;;;;;;;;;5061843;28;20432;-77
2023/01/03 07:18:21;;;;;;;8.95;4.78;;;;;;;;;;5077910;28;20039;-77
2023/01/03 07:20:47;;;;;;;8.07;4.30;;;;;;;;;;5055904;28;20028;-77
2023/01/03 07:23:12;;;;;;;7.40;4.35;;;;;;;;;;5066710;28;20397;-77
2023/01/03 07:25:40;;;;;;;7.03;4.30;;;;;;;;;;5059916;28;20126;-77
2023/01/03 07:28:09;;;;;;;7.72;4.45;;;;;;;;;;5057685;28;20162;-77
2023/01/03 07:30:43;;;;;;;8.98;4.45;;;;;;;;;;5066087;28;20044;-77
2023/01/03 07:33:10;;;;;;;10.65;5.13;;;;;;;;;;5068730;28;20127;-77
2023/01/03 07:35:36;;;;;;;9.77;4.53;;;;;;;;;;5068654;28;20500;-77
2023/01/03 07:38:02;;;;;;;8.15;4.30;;;;;;;;;;5063536;28;20039;-77
2023/01/03 07:40:28;;;;;;;6.95;4.30;;;;;;;;;;5063910;28;20020;-77
2023/01/03 07:45:41;;;;;;;6.80;4.03;;;;;;;;;;5069078;28;20040;-77
2023/01/03 07:48:08;;;;;;;6.53;3.88;;;;;;;;;;5069317;28;20032;-77
2023/01/03 07:50:34;;;;;;;8.48;4.45;;;;;;;;;;5067733;28;20059;-78
2023/01/03 07:52:59;;;;;;;8.20;4.85;;;;;;;;;;5066780;28;20067;-77
2023/01/03 07:55:25;;;;;;;6.53;4.15;;;;;;;;;;5064074;28;20024;-76
2023/01/03 07:57:50;;;;;;;7.20;4.50;;;;;;;;;;5068525;28;20537;-77
2023/01/03 08:00:15;;;;;;;8.65;4.57;;;;;;;;;;5068062;28;20063;-77
2023/01/03 08:02:41;;;;;;;9.07;4.70;;;;;;;;;;5067636;28;20043;-77
2023/01/03 08:05:07;;;;;;;7.97;4.03;;;;;;;;;;5069169;28;20676;-77
2023/01/03 08:07:32;;;;;;;8.75;3.95;;;;;;;;;;5065505;28;20093;-77
2023/01/03 08:15:25;;;;;;;7.10;4.13;;;;;;;;;;5056725;28;20514;-77
2023/01/03 08:17:50;;;;;;;7.78;4.38;;;;;;;;;;5058655;28;20028;-77
2023/01/03 08:20:16;;;;;;;8.07;4.55;;;;;;;;;;5065930;28;20036;-77
2023/01/03 08:22:41;;;;;;;7.60;4.70;;;;;;;;;;5065324;28;20043;-77
2023/01/03 08:25:07;;;;;;;10.85;4.85;;;;;;;;;;5060485;28;20473;-77
2023/01/03 08:27:32;;;;;;;10.20;4.38;;;;;;;;;;5054374;28;20037;-77
2023/01/03 08:29:58;;;;;;;7.78;4.45;;;;;;;;;;5063379;28;20106;-77
2023/01/03 08:32:23;;;;;;;7.07;4.60;;;;;;;;;;5062890;28;20115;-77
2023/01/03 08:34:49;;;;;;;9.13;4.82;;;;;;;;;;5054314;28;21240;-77
2023/01/03 08:37:15;;;;;;;6.97;4.47;;;;;;;;;;5061482;28;20069;-77
2023/01/03 08:39:51;;;;;;;8.63;4.88;;;;;;;;;;5063329;28;20031;-77
2023/01/03 08:42:22;;;;;;;8.98;5.18;;;;;;;;;;5062181;28;20481;-77
2023/01/03 08:44:48;;;;;;;10.70;5.50;;;;;;;;;;5059314;28;20488;-77
2023/01/03 08:47:14;;;;;;;9.35;5.13;;;;;;;;;;5064119;28;20036;-77
2023/01/03 08:49:40;;;;;;;9.80;5.28;;;;;;;;;;5061180;28;20075;-77
2023/01/03 08:52:05;;;;;;;10.23;5.32;;;;;;;;;;5057946;28;20024;-77
2023/01/03 08:54:30;;;;;;;8.95;5.07;;;;;;;;;;5055697;28;20044;-77
2023/01/03 08:56:56;;;;;;;8.75;5.18;;;;;;;;;;5061278;28;20090;-77
2023/01/03 08:59:22;;;;;;;10.07;5.68;;;;;;;;;;5066832;28;20112;-77
2023/01/03 09:01:47;;;;;;;9.52;5.32;;;;;;;;;;5061126;28;20033;-77
2023/01/03 09:04:13;;;;;;;9.93;5.53;;;;;;;;;;5058576;28;20125;-77
2023/01/03 09:06:38;;;;;;;10.25;5.80;;;;;;;;;;5054225;28;20044;-77
2023/01/03 09:09:05;;;;;;;10.75;6.07;;;;;;;;;;5057900;28;20029;-76
2023/01/03 09:11:30;;;;;;;12.93;6.18;;;;;;;;;;5054827;28;20028;-77
2023/01/03 09:13:56;;;;;;;9.38;5.43;;;;;;;;;;5065886;28;20055;-77
2023/01/03 09:16:21;;;;;;;13.45;6.07;;;;;;;;;;5062938;28;20028;-77
2023/01/03 09:18:46;;;;;;;15.73;6.18;;;;;;;;;;5060278;28;20116;-77
2023/01/03 09:21:12;;;;;;;10.63;5.95;;;;;;;;;;5067171;28;20032;-77
2023/01/03 09:23:37;;;;;;;11.07;6.07;;;;;;;;;;5061881;28;20029;-77
2023/01/03 09:26:04;;;;;;;13.02;6.82;;;;;;;;;;5065594;28;20424;-77
2023/01/03 09:28:29;;;;;;;9.85;5.38;;;;;;;;;;5078491;28;20079;-77
2023/01/03 09:30:55;;;;;;;11.38;6.28;;;;;;;;;;5064013;28;20045;-77
2023/01/03 09:33:21;;;;;;;12.05;6.10;;;;;;;;;;5053073;28;20029;-77
2023/01/03 09:35:46;;;;;;;11.35;6.20;;;;;;;;;;5060634;28;20039;-77
2023/01/03 09:38:12;;;;;;;13.70;7.10;;;;;;;;;;5066400;28;20024;-77
2023/01/03 09:40:40;;;;;;;12.45;6.63;;;;;;;;;;5058818;28;20029;-77
2023/01/03 09:43:12;;;;;;;11.18;6.40;;;;;;;;;;5062296;28;20021;-77
2023/01/03 09:45:42;;;;;;;11.82;5.97;;;;;;;;;;5062470;28;20048;-77
2023/01/03 09:48:13;;;;;;;14.45;6.75;;;;;;;;;;5067534;28;20047;-77
2023/01/03 09:50:39;;;;;;;12.65;6.45;;;;;;;;;;5061776;28;20025;-77
2023/01/03 10:04:32;;;;;;;11.55;5.75;;;;;;;;;;5062121;28;20040;-77
2023/01/03 10:07:09;;;;;;;9.57;5.20;;;;;;;;;;5062805;28;20021;-77
2023/01/03 10:09:53;;;;;;;8.02;4.95;;;;;;;;;;5058389;28;20112;-77
2023/01/03 10:12:44;;;;;;;12.15;5.68;;;;;;;;;;5067849;28;20575;-77
2023/01/03 10:15:21;;;;;;;14.88;6.05;;;;;;;;;;5069076;28;20369;-77
2023/01/03 10:18:01;;;;;;;10.55;5.53;;;;;;;;;;5067988;28;20024;-77
2023/01/03 10:20:42;;;;;;;11.45;5.80;;;;;;;;;;5069192;28;20032;-77
2023/01/03 10:23:10;;;;;;;9.95;6.20;;;;;;;;;;5069398;28;20025;-77
2023/01/03 10:25:38;;;;;;;10.70;5.75;;;;;;;;;;5063480;28;20482;-77
2023/01/03 10:28:20;;;;;;;10.65;5.57;;;;;;;;;;5061985;28;20090;-77
2023/01/03 10:31:07;;;;;;;10.35;5.43;;;;;;;;;;5062795;28;20165;-77
2023/01/03 10:33:38;;;;;;;10.63;6.03;;;;;;;;;;5067728;28;20025;-77
2023/01/03 10:36:04;;;;;;;10.90;5.38;;;;;;;;;;5064691;28;20035;-77
2023/01/03 10:38:30;;;;;;;13.13;5.60;;;;;;;;;;5077159;28;20248;-77
2023/01/03 10:40:57;;;;;;;10.90;5.78;;;;;;;;;;5065037;28;20081;-77
2023/01/03 10:43:38;;;;;;;9.52;5.43;;;;;;;;;;5068971;28;20033;-77
2023/01/03 10:46:12;;;;;;;9.90;5.05;;;;;;;;;;5065951;28;20048;-77
2023/01/03 10:48:43;;;;;;;10.63;5.43;;;;;;;;;;5066808;28;20032;-77
2023/01/03 10:51:24;;;;;;;10.60;6.03;;;;;;;;;;5069812;28;20163;-77
2023/01/03 10:53:51;;;;;;;10.38;4.82;;;;;;;;;;5069142;28;20535;-77
2023/01/03 10:56:18;;;;;;;9.60;4.97;;;;;;;;;;5070249;28;20071;-77
2023/01/03 10:58:43;;;;;;;9.00;4.68;;;;;;;;;;5068199;28;20510;-77
2023/01/03 11:01:20;;;;;;;10.77;5.43;;;;;;;;;;5069072;28;20116;-77
2023/01/03 11:04:07;;;;;;;8.05;4.95;;;;;;;;;;5062438;28;20533;-77
2023/01/03 11:06:33;;;;;;;11.07;4.60;;;;;;;;;;5067851;28;20819;-77
2023/01/03 11:09:02;;;;;;;10.23;5.07;;;;;;;;;;5069431;28;20127;-77
2023/01/03 11:11:38;;;;;;;8.48;4.60;;;;;;;;;;5071128;28;20105;-77
2023/01/03 11:14:21;;;;;;;8.68;4.95;;;;;;;;;;5065770;28;20392;-77
2023/01/03 11:17:05;;;;;;;9.32;4.90;;;;;;;;;;5069070;28;20033;-77
2023/01/03 11:19:31;;;;;;;;;;;;;;;;;;5070864;28;20439;-79
2023/01/03 11:22:09;;;;;;;8.55;4.80;;;;;;;;;;5068693;28;19917;-77
2023/01/03 11:25:04;;;;;;;9.07;4.65;;;;;;;;;;5061365;28;20025;-77
2023/01/03 11:27:43;;;;;;;7.70;4.38;;;;;;;;;;5064173;28;20012;-77
2023/01/03 11:30:28;;;;;;;10.60;4.53;;;;;;;;;;5078946;28;20139;-77
2023/01/03 11:33:06;;;;;;;10.05;5.20;;;;;;;;;;5064861;28;20027;-77
2023/01/03 11:35:52;;;;;;;8.98;4.82;;;;;;;;;;5062370;28;20032;-77
2023/01/03 11:38:58;;;;;;;8.07;4.47;;;;;;;;;;5066295;28;20034;-82
2023/01/03 11:41:40;;;;;;;7.57;4.35;;;;;;;;;;5063570;28;20028;-77
2023/01/03 11:44:25;;;;;;;7.53;4.43;;;;;;;;;;5063613;28;20124;-77
2023/01/03 11:47:06;;;;;;;8.95;5.18;;;;;;;;;;5062107;28;20029;-77
2023/01/03 11:49:56;;;;;;;6.95;4.03;;;;;;;;;;5069439;28;20024;-77
2023/01/03 11:52:32;;;;;;;7.95;3.90;;;;;;;;;;5061919;28;20047;-77
2023/01/03 11:55:26;;;;;;;7.95;4.00;;;;;;;;;;5063454;28;20095;-77
2023/01/03 11:58:04;;;;;;;7.80;4.57;;;;;;;;;;5064913;28;20491;-77
2023/01/03 12:00:49;;;;;;;8.98;5.35;;;;;;;;;;5068817;28;20111;-77
2023/01/03 12:03:44;;;;;;;8.48;4.97;;;;;;;;;;5069042;28;20027;-77
2023/01/03 12:06:20;;;;;;;11.82;5.75;;;;;;;;;;5067270;28;20031;-78
2023/01/03 12:09:09;;;;;;;10.07;5.50;;;;;;;;;;5071218;28;20042;-77
2023/01/03 12:12:00;;;;;;;8.30;5.03;;;;;;;;;;5065638;28;20033;-77
2023/01/03 12:14:39;;;;;;;11.88;5.35;;;;;;;;;;5064172;28;20047;-77
2023/01/03 12:17:42;;;;;;;9.13;5.57;;;;;;;;;;5062119;28;20024;-77
2023/01/03 12:20:35;;;;;;;10.33;4.80;;;;;;;;;;5065113;28;20028;-77
2023/01/03 12:23:27;;;;;;;8.13;5.13;;;;;;;;;;5063290;28;20288;-77
2023/01/03 12:25:58;;;;;;;10.77;5.32;;;;;;;;;;5047010;28;20685;-77
2023/01/03 12:28:30;;;;;;;11.93;6.28;;;;;;;;;;5051770;28;20496;-77
2023/01/03 12:31:01;;;;;;;11.30;6.65;;;;;;;;;;5055920;28;20746;-77
2023/01/03 12:33:31;;;;;;;11.68;6.13;;;;;;;;;;5056540;28;20111;-77
2023/01/03 12:36:17;;;;;;;8.73;5.32;;;;;;;;;;5059152;28;20036;-77
2023/01/03 12:38:57;;;;;;;10.15;5.65;;;;;;;;;;5055668;28;20212;-77
2023/01/03 12:42:13;;;;;;;12.23;6.50;;;;;;;;;;5054529;28;20055;-77
2023/01/03 12:44:43;;;;;;;10.07;5.55;;;;;;;;;;5053114;28;20024;-77
2023/01/03 12:47:29;;;;;;;10.82;5.40;;;;;;;;;;5052105;28;20040;-77
2023/01/03 12:50:29;;;;;;;10.30;5.65;;;;;;;;;;5060176;28;20496;-77
2023/01/03 12:53:17;;;;;;;9.48;4.45;;;;;;;;;;5055585;28;20040;-77
2023/01/03 12:56:24;;;;;;;8.00;3.78;;;;;;;;;;5058119;28;20036;-77
2023/01/03 12:59:07;;;;;;;6.95;3.92;;;;;;;;;;5055842;28;20520;-77
2023/01/03 13:01:47;;;;;;;8.20;3.47;;;;;;;;;;5058810;28;20033;-77
2023/01/03 13:04:27;;;;;;;6.18;3.47;;;;;;;;;;5057310;28;20111;-77
2023/01/03 13:07:14;;;;;;;6.97;3.10;;;;;;;;;;5057214;28;20036;-77
2023/01/03 13:09:44;;;;;;;6.95;2.90;;;;;;;;;;5051279;28;20063;-77
2023/01/03 13:12:15;;;;;;;9.80;4.15;;;;;;;;;;5044989;28;20046;-77
2023/01/03 13:14:54;;;;;;;8.90;2.95;;;;;;;;;;5056471;28;20036;-77
2023/01/03 13:17:23;;;;;;;7.90;2.83;;;;;;;;;;5053113;28;20032;-77
2023/01/03 13:20:16;;;;;;;6.57;3.03;;;;;;;;;;5055388;28;20029;-77
2023/01/03 13:22:58;;;;;;;7.05;3.45;;;;;;;;;;5061197;28;20396;-77
2023/01/03 13:25:39;;;;;;;5.45;2.88;;;;;;;;;;5055028;28;20036;-77
2023/01/03 13:28:17;;;;;;;4.70;2.72;;;;;;;;;;5052672;28;20029;-77
2023/01/03 13:30:43;;;;;;;6.03;3.17;;;;;;;;;;5069182;28;20036;-77
2023/01/03 13:33:11;;;;;;;6.82;3.53;;;;;;;;;;5060744;28;20500;-77
2023/01/03 13:35:42;;;;;;;6.85;3.38;;;;;;;;;;5064966;28;20028;-77
2023/01/03 13:38:28;;;;;;;5.47;3.10;;;;;;;;;;5061631;28;20028;-77
2023/01/03 13:41:03;;;;;;;7.70;3.00;;;;;;;;;;5062963;28;20480;-77
2023/01/03 13:43:33;;;;;;;6.10;3.03;;;;;;;;;;5055078;28;20509;-76
2023/01/03 13:46:08;;;;;;;7.15;3.70;;;;;;;;;;5058977;28;20459;-77
2023/01/03 13:48:38;;;;;;;7.63;3.30;;;;;;;;;;5057473;28;20152;-77
2023/01/03 13:51:15;;;;;;;6.82;3.60;;;;;;;;;;5060093;28;20554;-77
2023/01/03 13:53:59;;;;;;;5.80;3.15;;;;;;;;;;5061542;28;20037;-76
2023/01/03 13:56:28;;;;;;;5.40;3.20;;;;;;;;;;5061708;28;20024;-77
2023/01/03 13:59:00;;;;;;;6.13;3.03;;;;;;;;;;5058190;28;20021;-77
2023/01/03 14:01:37;;;;;;;6.85;3.17;;;;;;;;;;5063202;28;20021;-77
2023/01/03 14:04:12;;;;;;;7.45;3.42;;;;;;;;;;5061444;28;20024;-77
2023/01/03 14:06:59;;;;;;;5.03;3.17;;;;;;;;;;5061678;28;20055;-77
2023/01/03 14:09:37;;;;;;;6.18;3.40;;;;;;;;;;5057067;28;20401;-77
2023/01/03 14:12:36;;;;;;;7.38;3.60;;;;;;;;;;5060826;28;20033;-77
2023/01/03 14:15:18;;;;;;;6.38;3.40;;;;;;;;;;5061240;28;20085;-77
2023/01/03 14:17:47;;;;;;;7.30;3.40;;;;;;;;;;5057249;28;20539;-77
2023/01/03 14:20:19;;;;;;;7.20;2.85;;;;;;;;;;5061706;28;20475;-77
2023/01/03 14:22:48;;;;;;;8.25;3.22;;;;;;;;;;5053604;28;20442;-77
2023/01/03 14:25:30;;;;;;;6.95;3.35;;;;;;;;;;5057539;28;20036;-77
2023/01/03 14:27:56;;;;;;;7.60;3.28;;;;;;;;;;5051680;28;20043;-77
2023/01/03 14:30:27;;;;;;;5.72;2.97;;;;;;;;;;5055263;28;21465;-77
2023/01/03 14:32:52;;;;;;;7.28;3.10;;;;;;;;;;5066534;28;20139;-77
2023/01/03 14:35:34;;;;;;;5.90;2.63;;;;;;;;;;5063273;28;20722;-77
2023/01/03 14:38:00;;;;;;;5.63;2.97;;;;;;;;;;5057605;28;20032;-77
2023/01/03 14:40:25;;;;;;;7.18;2.90;;;;;;;;;;5060403;28;20442;-77
2023/01/03 14:42:50;;;;;;;5.30;2.55;;;;;;;;;;5061259;28;20043;-77
2023/01/03 14:45:18;;;;;;;8.32;2.72;;;;;;;;;;5063094;28;20598;-77
2023/01/03 14:47:44;;;;;;;7.50;3.15;;;;;;;;;;5061593;28;20036;-78
2023/01/03 14:50:21;;;;;;;6.45;2.80;;;;;;;;;;5062584;28;20067;-77
2023/01/03 14:52:57;;;;;;;7.50;2.55;;;;;;;;;;5070593;28;20016;-76
2023/01/03 14:55:26;;;;;;;5.82;2.70;;;;;;;;;;5057878;28;20036;-77
2023/01/03 14:57:53;;;;;;;5.30;2.35;;;;;;;;;;5063406;28;20036;-77
2023/01/03 15:00:28;;;;;;;7.25;2.58;;;;;;;;;;5058672;28;20090;-77
2023/01/03 15:02:54;;;;;;;6.38;2.70;;;;;;;;;;5067728;28;20029;-77
2023/01/03 15:05:39;;;;;;;7.18;2.78;;;;;;;;;;5061542;28;20025;-77
2023/01/03 15:08:13;;;;;;;7.72;2.72;;;;;;;;;;5059290;28;20108;-77
2023/01/03 15:10:48;;;;;;;5.07;2.60;;;;;;;;;;5057318;28;20028;-77
2023/01/03 15:13:22;;;;;;;5.82;2.70;;;;;;;;;;5074289;28;20436;-77
2023/01/03 15:15:56;;;;;;;6.65;2.63;;;;;;;;;;5059565;28;20485;-77
2023/01/03 15:18:25;;;;;;;5.82;2.50;;;;;;;;;;5056595;28;20035;-77
2023/01/03 15:20:53;;;;;;;6.93;3.13;;;;;;;;;;5062107;28;20384;-77
2023/01/03 15:23:27;;;;;;;6.05;2.55;;;;;;;;;;5059950;28;20032;-77
2023/01/03 15:25:53;;;;;;;5.75;2.50;;;;;;;;;;5053353;28;20032;-77
2023/01/03 15:28:49;;;;;;;7.03;2.42;;;;;;;;;;5061690;28;20047;-77
2023/01/03 15:31:44;;;;;;;6.97;2.60;;;;;;;;;;5065957;28;20045;-77
2023/01/03 15:34:18;;;;;;;7.03;2.28;;;;;;;;;;5060386;28;20055;-77
2023/01/03 15:36:56;;;;;;;7.20;2.10;;;;;;;;;;5059842;28;20024;-77
2023/01/03 15:39:24;;;;;;;5.15;2.05;;;;;;;;;;5060975;28;20419;-77
2023/01/03 15:44:41;;;;;;;6.93;3.45;;;;;;;;;;5066869;28;20101;-77
2023/01/03 15:47:08;;;;;;;8.63;3.20;;;;;;;;;;5065770;28;20052;-77
2023/01/03 15:49:40;;;;;;;6.25;2.30;;;;;;;;;;5057384;28;20043;-77
2023/01/03 15:52:06;;;;;;;5.03;2.50;;;;;;;;;;5066866;28;20051;-77
2023/01/03 15:54:31;;;;;;;6.28;2.58;;;;;;;;;;5061008;28;20375;-77
2023/01/03 15:57:08;;;;;;;5.55;2.17;;;;;;;;;;5066017;28;20029;-76
2023/01/03 15:59:34;;;;;;;3.72;1.92;;;;;;;;;;5078510;28;20028;-77
2023/01/03 16:02:00;;;;;;;6.18;2.30;;;;;;;;;;5058421;28;20626;-77
2023/01/03 16:04:26;;;;;;;3.70;2.10;;;;;;;;;;5062167;28;20102;-77
2023/01/03 16:06:52;;;;;;;3.97;2.08;;;;;;;;;;5055842;28;20488;-77
2023/01/03 16:09:19;;;;;;;5.32;2.40;;;;;;;;;;5061950;28;20024;-77